createdAt,value
2023-03-02T00:00:28.184Z,6.15
2023-03-02T00:02:58.077Z,7.03
2023-03-02T00:05:28.614Z,7.23
2023-03-02T00:08:00.545Z,7.37
2023-03-02T00:10:30.531Z,7.17
2023-03-02T00:13:00.909Z,7.63
2023-03-02T00:15:30.501Z,7.77
2023-03-02T00:18:00.279Z,7.93
2023-03-02T00:20:30.047Z,7.80
2023-03-02T00:22:59.873Z,8.50
2023-03-02T00:25:29.758Z,8.57
2023-03-02T00:27:59.544Z,8.63
2023-03-02T00:30:29.416Z,8.90
2023-03-02T00:32:59.249Z,9.93
2023-03-02T00:35:29.396Z,10.03
2023-03-02T00:37:59.334Z,11.40
2023-03-02T00:40:29.098Z,11.80
2023-03-02T00:42:58.850Z,11.47
2023-03-02T00:45:28.647Z,13.00
2023-03-02T00:47:58.785Z,14.07
2023-03-02T00:50:28.599Z,15.15
2023-03-02T00:52:58.810Z,15.70
2023-03-02T00:55:28.516Z,15.53
2023-03-02T00:57:58.659Z,15.95
2023-03-02T01:00:31.280Z,16.32
2023-03-02T01:03:03.192Z,17.10
2023-03-02T01:05:34.250Z,16.70
2023-03-02T01:08:06.784Z,17.74
2023-03-02T01:10:38.458Z,18.93
2023-03-02T01:13:08.358Z,19.07
2023-03-02T01:15:38.326Z,19.53
2023-03-02T01:18:11.057Z,20.32
2023-03-02T01:20:41.329Z,20.60
2023-03-02T01:23:11.128Z,18.67
2023-03-02T01:25:41.222Z,21.80
2023-03-02T01:28:11.006Z,22.07
2023-03-02T01:30:40.790Z,22.57
2023-03-02T01:33:11.837Z,22.60
2023-03-02T01:35:41.761Z,23.03
2023-03-02T01:38:11.778Z,23.92
2023-03-02T01:40:41.676Z,25.47
2023-03-02T01:43:15.460Z,24.93
2023-03-02T01:45:57.412Z,25.07
2023-03-02T01:48:52.973Z,26.53
2023-03-02T01:51:29.330Z,26.27
2023-03-02T01:54:05.386Z,27.37
2023-03-02T01:56:38.255Z,27.15
2023-03-02T01:59:13.944Z,27.10
2023-03-02T02:01:46.591Z,28.47
2023-03-02T02:04:16.278Z,27.83
2023-03-02T02:07:00.879Z,28.63
2023-03-02T02:09:33.624Z,27.37
2023-03-02T02:12:03.721Z,27.57
2023-03-02T02:14:34.148Z,28.60
2023-03-02T02:17:03.962Z,27.27
2023-03-02T02:20:07.822Z,29.40
2023-03-02T02:22:49.370Z,26.97
2023-03-02T02:25:21.989Z,27.70
2023-03-02T02:27:52.284Z,28.23
2023-03-02T02:30:23.226Z,28.33
2023-03-02T02:32:55.650Z,29.07
2023-03-02T02:35:28.334Z,28.90
2023-03-02T02:38:04.415Z,30.53
2023-03-02T02:43:23.346Z,27.48
2023-03-02T02:45:56.664Z,28.65
2023-03-02T02:48:31.082Z,28.83
2023-03-02T02:51:03.119Z,28.00
2023-03-02T02:53:50.972Z,29.93
2023-03-02T02:56:20.852Z,29.07
2023-03-02T02:58:53.723Z,27.23
2023-03-02T03:01:26.291Z,29.90
2023-03-02T03:04:05.015Z,28.90
2023-03-02T03:06:42.653Z,29.10
2023-03-02T03:09:14.381Z,29.07
2023-03-02T03:11:49.292Z,29.17
2023-03-02T03:14:23.178Z,28.70
2023-03-02T03:16:53.949Z,27.60
2023-03-02T03:19:29.964Z,28.93
2023-03-02T03:24:34.094Z,26.07
2023-03-02T03:27:08.466Z,27.23
2023-03-02T03:29:42.371Z,27.93
2023-03-02T03:32:12.838Z,27.37
2023-03-02T03:34:42.813Z,27.50
2023-03-02T03:37:17.866Z,28.30
2023-03-02T03:39:48.449Z,26.83
2023-03-02T03:42:18.720Z,29.30
2023-03-02T03:44:48.865Z,28.93
2023-03-02T03:47:18.795Z,27.10
2023-03-02T03:49:49.054Z,27.60
2023-03-02T03:52:18.952Z,25.57
2023-03-02T03:54:48.828Z,26.33
2023-03-02T03:57:18.745Z,26.90
2023-03-02T03:59:48.828Z,26.43
2023-03-02T04:02:19.652Z,28.12
2023-03-02T04:04:49.693Z,28.17
2023-03-02T04:07:21.267Z,28.03
2023-03-02T04:09:53.205Z,27.33
2023-03-02T04:12:23.144Z,27.37
2023-03-02T04:14:54.713Z,26.57
2023-03-02T04:17:24.799Z,25.73
2023-03-02T04:19:55.774Z,27.00
2023-03-02T04:22:26.321Z,27.10
2023-03-02T04:24:56.300Z,26.70
2023-03-02T04:27:27.265Z,27.00
2023-03-02T04:29:57.116Z,27.27
2023-03-02T04:32:27.268Z,26.62
2023-03-02T04:34:58.033Z,25.63
2023-03-02T04:37:28.531Z,25.93
2023-03-02T04:39:58.922Z,27.17
2023-03-02T04:42:28.689Z,26.07
2023-03-02T04:44:58.277Z,26.20
2023-03-02T04:47:28.182Z,26.70
2023-03-02T04:49:57.992Z,25.67
2023-03-02T04:52:27.818Z,25.27
2023-03-02T04:54:57.687Z,27.63
2023-03-02T04:57:27.519Z,25.90
2023-03-02T04:59:57.325Z,26.93
2023-03-02T05:02:27.015Z,27.75
2023-03-02T05:04:57.148Z,26.17
2023-03-02T05:07:27.123Z,27.40
2023-03-02T05:09:56.984Z,27.40
2023-03-02T05:12:26.717Z,26.65
2023-03-02T05:14:56.683Z,27.37
2023-03-02T05:17:26.706Z,27.82
2023-03-02T05:19:56.823Z,27.00
2023-03-02T05:22:26.496Z,26.17
2023-03-02T05:24:56.297Z,26.80
2023-03-02T05:27:26.134Z,28.70
2023-03-02T05:29:55.967Z,28.17
2023-03-02T05:32:25.902Z,26.50
2023-03-02T05:34:55.655Z,25.23
2023-03-02T05:37:25.905Z,26.70
2023-03-02T05:39:55.414Z,27.20
2023-03-02T05:42:25.396Z,27.62
2023-03-02T05:44:55.533Z,26.87
2023-03-02T05:47:25.349Z,27.33
2023-03-02T05:49:55.133Z,27.37
2023-03-02T05:52:24.792Z,26.87
2023-03-02T05:54:54.907Z,26.53
2023-03-02T05:57:25.286Z,27.50
2023-03-02T05:59:55.190Z,24.60
2023-03-02T06:02:24.834Z,25.07
2023-03-02T06:04:54.628Z,25.40
2023-03-02T06:07:24.782Z,25.75
2023-03-02T06:09:54.689Z,26.50
2023-03-02T06:12:24.309Z,25.62
2023-03-02T06:14:54.133Z,27.07
2023-03-02T06:17:23.980Z,26.23
2023-03-02T06:19:53.953Z,25.13
2023-03-02T06:22:23.480Z,26.10
2023-03-02T06:24:55.151Z,27.27
2023-03-02T06:27:25.008Z,25.63
2023-03-02T06:29:54.895Z,26.37
2023-03-02T06:32:24.515Z,25.62
2023-03-02T06:34:54.689Z,25.35
2023-03-02T06:37:24.722Z,26.93
2023-03-02T06:39:54.521Z,26.20
2023-03-02T06:42:25.780Z,25.52
2023-03-02T06:44:55.929Z,26.43
2023-03-02T06:47:25.894Z,24.17
2023-03-02T06:49:56.585Z,25.70
2023-03-02T06:52:27.482Z,25.85
2023-03-02T06:54:57.565Z,25.13
2023-03-02T06:57:29.146Z,23.80
2023-03-02T07:00:02.102Z,25.97
2023-03-02T07:02:31.946Z,24.63
2023-03-02T07:05:01.892Z,25.50
2023-03-02T07:07:31.829Z,24.50
2023-03-02T07:10:01.694Z,25.63
2023-03-02T07:12:31.942Z,24.52
2023-03-02T07:15:01.904Z,25.37
2023-03-02T07:17:32.086Z,25.72
2023-03-02T07:20:02.049Z,25.70
2023-03-02T07:22:32.550Z,26.73
2023-03-02T07:25:02.329Z,25.87
2023-03-02T07:27:32.387Z,26.07
2023-03-02T07:30:02.352Z,24.33
2023-03-02T07:32:34.490Z,24.40
2023-03-02T07:35:04.522Z,23.93
2023-03-02T07:37:35.467Z,26.00
2023-03-02T07:40:07.582Z,25.10
2023-03-02T07:42:37.433Z,24.37
2023-03-02T07:45:08.603Z,24.53
2023-03-02T07:47:38.799Z,24.15
2023-03-02T07:50:13.504Z,24.58
2023-03-02T07:52:43.780Z,23.57
2023-03-02T07:55:13.576Z,23.03
2023-03-02T07:57:43.505Z,23.87
2023-03-02T08:00:16.370Z,23.94
2023-03-02T08:02:46.279Z,23.00
2023-03-02T08:05:16.874Z,20.52
2023-03-02T08:07:48.720Z,22.30
2023-03-02T08:10:18.308Z,24.07
2023-03-02T08:12:48.235Z,22.77
2023-03-02T08:15:17.916Z,22.52
2023-03-02T08:17:48.017Z,21.37
2023-03-02T08:20:17.846Z,21.14
2023-03-02T08:22:47.766Z,21.07
2023-03-02T08:25:17.980Z,21.65
2023-03-02T08:27:47.850Z,22.63
2023-03-02T08:30:17.514Z,22.80
2023-03-02T08:32:47.469Z,21.30
2023-03-02T08:35:17.374Z,21.17
2023-03-02T08:37:47.169Z,20.33
2023-03-02T08:40:17.096Z,20.77
2023-03-02T08:42:47.034Z,21.67
2023-03-02T08:45:16.869Z,20.05
2023-03-02T08:47:47.052Z,20.43
2023-03-02T08:50:17.154Z,20.15
2023-03-02T08:52:47.001Z,19.80
2023-03-02T08:55:18.572Z,18.17
2023-03-02T08:57:49.043Z,19.40
2023-03-02T09:00:19.458Z,19.00
2023-03-02T09:02:49.318Z,19.23
2023-03-02T09:05:19.248Z,20.03
2023-03-02T09:07:49.126Z,19.30
2023-03-02T09:10:19.011Z,19.25
2023-03-02T09:12:49.026Z,19.93
2023-03-02T09:15:18.856Z,19.02
2023-03-02T09:17:48.901Z,19.43
2023-03-02T09:20:18.517Z,19.40
2023-03-02T09:22:50.273Z,18.47
2023-03-02T09:25:20.289Z,18.05
2023-03-02T09:27:50.124Z,18.03
2023-03-02T09:30:20.055Z,18.30
2023-03-02T09:32:50.801Z,18.80
2023-03-02T09:35:22.011Z,17.70
2023-03-02T09:37:51.950Z,18.33
2023-03-02T09:40:24.874Z,18.67
2023-03-02T09:43:21.806Z,18.07
2023-03-02T09:45:54.591Z,18.32
2023-03-02T09:48:42.432Z,17.57
2023-03-02T09:51:34.687Z,17.10
2023-03-02T09:54:13.895Z,17.77
2023-03-02T09:56:49.613Z,18.27
2023-03-02T09:59:31.579Z,17.98
2023-03-02T10:02:28.101Z,17.13
2023-03-02T10:05:00.784Z,15.70
2023-03-02T10:07:33.541Z,15.93
2023-03-02T10:10:12.160Z,17.27
2023-03-02T10:13:00.054Z,16.47
2023-03-02T10:15:38.530Z,17.00
2023-03-02T10:18:20.166Z,16.57
2023-03-02T10:21:08.471Z,16.85
2023-03-02T10:23:58.951Z,16.60
2023-03-02T10:26:32.299Z,16.23
2023-03-02T10:29:14.107Z,16.50
2023-03-02T10:31:45.588Z,15.37
2023-03-02T10:34:15.713Z,16.13
2023-03-02T10:36:47.781Z,14.47
2023-03-02T10:39:18.547Z,14.23
2023-03-02T10:41:57.016Z,15.23
2023-03-02T10:44:39.055Z,15.43
2023-03-02T10:47:10.959Z,15.43
2023-03-02T10:49:46.839Z,14.43
2023-03-02T10:52:18.937Z,13.90
2023-03-02T10:54:49.006Z,13.43
2023-03-02T10:57:33.896Z,13.50
2023-03-02T11:00:18.555Z,14.57
2023-03-02T11:02:54.198Z,13.03
2023-03-02T11:05:38.656Z,13.30
2023-03-02T11:08:25.425Z,13.20
2023-03-02T11:11:01.164Z,12.15
2023-03-02T11:13:35.285Z,12.03
2023-03-02T11:16:21.706Z,12.53
2023-03-02T11:18:57.228Z,12.73
2023-03-02T11:21:38.065Z,12.23
2023-03-02T11:24:12.587Z,12.87
2023-03-02T11:26:57.222Z,11.75
2023-03-02T11:29:49.561Z,10.27
2023-03-02T11:32:34.232Z,10.83
2023-03-02T11:35:22.800Z,10.67
2023-03-02T11:37:58.428Z,9.80
2023-03-02T11:40:47.221Z,10.93
2023-03-02T11:43:17.192Z,11.17
2023-03-02T11:45:53.086Z,11.33
2023-03-02T11:48:34.437Z,10.90
2023-03-02T11:51:09.654Z,10.73
2023-03-02T11:53:51.381Z,10.67
2023-03-02T11:56:21.017Z,10.80
2023-03-02T11:58:56.777Z,10.10
2023-03-02T12:01:28.801Z,9.97
2023-03-02T12:04:10.134Z,9.50
2023-03-02T12:06:44.416Z,9.97
2023-03-02T12:09:26.102Z,10.20
2023-03-02T12:12:15.075Z,10.00
2023-03-02T12:14:51.221Z,8.10
2023-03-02T12:17:30.830Z,8.27
2023-03-02T12:20:12.639Z,8.27
2023-03-02T12:22:42.633Z,8.43
2023-03-02T12:25:23.873Z,9.43
2023-03-02T12:27:55.200Z,10.07
2023-03-02T12:30:30.556Z,10.73
2023-03-02T12:33:12.689Z,8.90
2023-03-02T12:35:43.496Z,9.93
2023-03-02T12:38:31.131Z,9.13
2023-03-02T12:41:11.465Z,9.87
2023-03-02T12:43:50.414Z,9.83
2023-03-02T12:46:32.049Z,9.10
2023-03-02T12:49:30.421Z,9.53
2023-03-02T12:52:02.993Z,8.93
2023-03-02T12:54:35.414Z,8.53
2023-03-02T12:57:19.980Z,8.33
2023-03-02T13:00:01.811Z,8.00
2023-03-02T13:02:38.919Z,8.23
2023-03-02T13:05:10.380Z,8.37
2023-03-02T13:07:43.319Z,7.87
2023-03-02T13:10:25.338Z,8.37
2023-03-02T13:12:55.499Z,8.57
2023-03-02T13:15:25.378Z,7.93
2023-03-02T13:17:58.548Z,8.20
2023-03-02T13:20:30.535Z,8.87
2023-03-02T13:23:00.460Z,7.93
2023-03-02T13:25:32.431Z,8.05
2023-03-02T13:28:08.732Z,8.27
2023-03-02T13:30:41.757Z,7.80
2023-03-02T13:33:20.472Z,8.20
2023-03-02T13:35:50.441Z,8.40
2023-03-02T13:38:25.819Z,9.03
2023-03-02T13:40:57.722Z,10.07
2023-03-02T13:43:41.142Z,9.53
2023-03-02T13:46:20.539Z,10.34
2023-03-02T13:49:10.131Z,10.40
2023-03-02T13:51:41.440Z,11.50
2023-03-02T13:54:21.125Z,9.25
2023-03-02T13:56:53.727Z,9.33
2023-03-02T13:59:23.943Z,9.30
2023-03-02T14:01:53.904Z,9.83
2023-03-02T14:04:24.591Z,9.33
2023-03-02T14:06:56.141Z,9.03
2023-03-02T14:09:27.344Z,9.17
2023-03-02T14:11:59.275Z,9.40
2023-03-02T14:14:32.155Z,9.47
2023-03-02T14:17:02.051Z,9.80
2023-03-02T14:19:31.972Z,9.83
2023-03-02T14:22:02.145Z,9.90
2023-03-02T14:24:33.903Z,9.80
2023-03-02T14:27:03.301Z,8.80
2023-03-02T14:29:39.256Z,8.43
2023-03-02T14:32:12.357Z,9.25
2023-03-02T14:34:42.221Z,8.33
2023-03-02T14:37:20.882Z,9.73
2023-03-02T14:39:55.558Z,8.30
2023-03-02T14:42:25.548Z,8.43
2023-03-02T14:44:59.807Z,8.20
2023-03-02T14:47:29.814Z,9.03
2023-03-02T14:49:59.734Z,8.63
2023-03-02T14:52:38.371Z,8.53
2023-03-02T14:55:10.894Z,8.80
2023-03-02T14:57:40.819Z,8.57
2023-03-02T15:00:18.691Z,8.70
2023-03-02T15:02:49.180Z,7.67
2023-03-02T15:05:19.058Z,7.95
2023-03-02T15:07:49.330Z,8.17
2023-03-02T15:10:22.319Z,7.53
2023-03-02T15:12:52.664Z,7.93
2023-03-02T15:15:23.041Z,8.08
2023-03-02T15:17:54.279Z,8.20
2023-03-02T15:20:24.418Z,8.50
2023-03-02T15:22:54.349Z,8.03
2023-03-02T15:25:25.939Z,7.97
2023-03-02T15:27:57.546Z,7.77
2023-03-02T15:30:28.884Z,7.40
2023-03-02T15:33:01.630Z,7.60
2023-03-02T15:35:31.438Z,8.47
2023-03-02T15:38:02.989Z,7.70
2023-03-02T15:40:33.858Z,8.30
2023-03-02T15:43:05.245Z,7.80
2023-03-02T15:45:34.858Z,9.00
2023-03-02T15:48:06.640Z,8.45
2023-03-02T15:50:36.462Z,7.30
2023-03-02T15:53:06.798Z,7.97
2023-03-02T15:55:38.912Z,8.10
2023-03-02T15:58:11.120Z,8.13
2023-03-02T16:00:40.999Z,8.37
2023-03-02T16:03:12.912Z,8.05
2023-03-02T16:05:44.622Z,9.03
2023-03-02T16:08:14.101Z,8.45
2023-03-02T16:10:45.659Z,8.40
2023-03-02T16:13:15.703Z,8.58
2023-03-02T16:15:45.543Z,9.20
2023-03-02T16:18:15.310Z,8.50
2023-03-02T16:20:45.163Z,8.13
2023-03-02T16:23:15.921Z,9.15
2023-03-02T16:25:47.814Z,8.53
2023-03-02T16:28:19.087Z,8.88
2023-03-02T16:30:49.174Z,8.77
2023-03-02T16:33:19.610Z,8.90
2023-03-02T16:35:50.321Z,9.35
2023-03-02T16:38:20.182Z,8.78
2023-03-02T16:40:51.932Z,8.00
2023-03-02T16:43:23.564Z,9.27
2023-03-02T16:45:54.016Z,8.83
2023-03-02T16:48:24.214Z,8.43
2023-03-02T16:50:58.703Z,9.73
2023-03-02T16:53:28.373Z,8.65
2023-03-02T16:55:58.556Z,8.53
2023-03-02T16:58:28.256Z,7.90
2023-03-02T17:00:58.207Z,7.97
2023-03-02T17:03:28.121Z,9.20
2023-03-02T17:05:57.926Z,8.90
2023-03-02T17:08:28.172Z,8.78
2023-03-02T17:10:58.236Z,9.40
2023-03-02T17:13:28.083Z,9.13
2023-03-02T17:15:58.851Z,9.67
2023-03-02T17:18:29.985Z,10.40
2023-03-02T17:21:00.296Z,9.67
2023-03-02T17:23:31.308Z,10.30
2023-03-02T17:26:01.039Z,10.25
2023-03-02T17:28:31.042Z,11.03
2023-03-02T17:31:04.026Z,11.10
2023-03-02T17:33:33.955Z,10.87
2023-03-02T17:36:12.263Z,10.55
2023-03-02T17:38:42.620Z,13.77
2023-03-02T17:41:13.013Z,12.07
2023-03-02T17:43:43.646Z,11.23
2023-03-02T17:46:25.509Z,11.10
2023-03-02T17:48:57.749Z,10.43
2023-03-02T17:51:29.305Z,12.35
2023-03-02T17:53:59.188Z,12.07
2023-03-02T17:56:30.111Z,12.73
2023-03-02T17:59:02.452Z,12.00
2023-03-02T18:01:33.231Z,12.23
2023-03-02T18:04:03.146Z,12.60
2023-03-02T18:06:33.589Z,12.90
2023-03-02T18:09:03.557Z,13.03
2023-03-02T18:11:33.811Z,12.27
2023-03-02T18:14:04.986Z,12.65
2023-03-02T18:16:35.619Z,12.80
2023-03-02T18:19:05.802Z,13.25
2023-03-02T18:21:36.865Z,13.13
2023-03-02T18:24:08.576Z,13.90
2023-03-02T18:26:38.700Z,13.83
2023-03-02T18:29:08.770Z,14.83
2023-03-02T18:31:38.729Z,14.63
2023-03-02T18:34:09.709Z,14.50
2023-03-02T18:36:39.701Z,14.93
2023-03-02T18:39:09.587Z,14.57
2023-03-02T18:41:39.450Z,15.67
2023-03-02T18:44:11.497Z,15.20
2023-03-02T18:46:41.714Z,16.20
2023-03-02T18:49:11.849Z,15.60
2023-03-02T18:51:43.195Z,16.40
2023-03-02T18:54:13.029Z,16.40
2023-03-02T18:56:42.818Z,16.60
2023-03-02T18:59:13.239Z,16.27
2023-03-02T19:01:44.767Z,16.00
2023-03-02T19:04:15.423Z,16.20
2023-03-02T19:06:45.513Z,17.45
2023-03-02T19:09:15.466Z,15.87
2023-03-02T19:11:45.247Z,16.47
2023-03-02T19:14:16.079Z,17.77
2023-03-02T19:16:46.451Z,15.93
2023-03-02T19:19:16.317Z,16.13
2023-03-02T19:21:46.223Z,15.77
2023-03-02T19:24:15.680Z,15.72
2023-03-02T19:26:46.514Z,15.13
2023-03-02T19:29:16.329Z,14.93
2023-03-02T19:31:46.145Z,15.33
2023-03-02T19:34:16.124Z,14.73
2023-03-02T19:36:46.675Z,14.93
2023-03-02T19:39:16.429Z,14.30
2023-03-02T19:41:46.408Z,14.43
2023-03-02T19:44:16.485Z,14.47
2023-03-02T19:46:46.370Z,13.97
2023-03-02T19:49:16.244Z,14.47
2023-03-02T19:51:46.162Z,14.40
2023-03-02T19:54:16.209Z,14.68
2023-03-02T19:56:47.789Z,14.13
2023-03-02T19:59:17.935Z,14.63
2023-03-02T20:01:49.301Z,14.83
2023-03-02T20:04:19.420Z,13.58
2023-03-02T20:06:49.243Z,13.67
2023-03-02T20:09:20.208Z,13.67
2023-03-02T20:11:50.317Z,14.23
2023-03-02T20:14:31.566Z,13.20
2023-03-02T20:16:52.079Z,14.47
2023-03-02T20:19:22.307Z,14.07
2023-03-02T20:21:52.089Z,15.13
2023-03-02T20:24:22.061Z,13.98
2023-03-02T20:26:51.837Z,13.93
2023-03-02T20:29:21.660Z,15.70
2023-03-02T20:31:51.594Z,14.83
2023-03-02T20:34:21.762Z,15.60
2023-03-02T20:36:51.510Z,15.67
2023-03-02T20:39:24.482Z,15.93
2023-03-02T20:41:54.370Z,16.93
2023-03-02T20:44:25.895Z,15.60
2023-03-02T20:46:59.036Z,16.93
2023-03-02T20:49:32.096Z,17.25
2023-03-02T20:52:02.682Z,16.47
2023-03-02T20:54:35.816Z,16.65
2023-03-02T20:57:07.896Z,16.87
2023-03-02T20:59:38.946Z,17.60
2023-03-02T21:02:09.714Z,17.13
2023-03-02T21:04:40.846Z,18.80
2023-03-02T21:07:12.210Z,17.67
2023-03-02T21:09:43.294Z,17.70
2023-03-02T21:12:13.852Z,18.37
2023-03-02T21:14:43.908Z,18.13
2023-03-02T21:17:13.807Z,17.77
2023-03-02T21:19:44.007Z,17.15
2023-03-02T21:22:14.016Z,18.45
2023-03-02T21:24:43.983Z,19.33
2023-03-02T21:27:14.026Z,18.47
2023-03-02T21:29:43.861Z,19.37
2023-03-02T21:32:13.365Z,19.33
2023-03-02T21:34:44.536Z,18.20
2023-03-02T21:37:14.447Z,19.10
2023-03-02T21:39:44.214Z,20.03
2023-03-02T21:42:14.043Z,18.65
2023-03-02T21:44:43.842Z,20.50
2023-03-02T21:47:13.596Z,19.53
2023-03-02T21:49:43.790Z,19.02
2023-03-02T21:52:13.615Z,20.17
2023-03-02T21:54:43.660Z,20.82
2023-03-02T21:57:13.828Z,22.42
2023-03-02T21:59:43.629Z,20.70
2023-03-02T22:02:13.891Z,19.37
2023-03-02T22:04:45.847Z,20.60
2023-03-02T22:07:15.696Z,20.23
2023-03-02T22:09:45.926Z,20.90
2023-03-02T22:12:16.149Z,20.77
2023-03-02T22:14:46.115Z,21.97
2023-03-02T22:17:24.583Z,20.43
2023-03-02T22:19:54.777Z,21.53
2023-03-02T22:22:27.318Z,20.48
2023-03-02T22:24:57.201Z,21.53
2023-03-02T22:27:29.930Z,20.20
2023-03-02T22:30:02.028Z,20.37
2023-03-02T22:32:34.551Z,21.63
2023-03-02T22:35:26.145Z,20.20
2023-03-02T22:38:10.593Z,21.07
2023-03-02T22:40:41.376Z,21.23
2023-03-02T22:43:14.288Z,21.60
2023-03-02T22:45:44.329Z,21.70
2023-03-02T22:48:22.758Z,23.83
2023-03-02T22:50:53.326Z,22.40
2023-03-02T22:53:33.227Z,21.30
2023-03-02T22:56:04.964Z,21.80
2023-03-02T22:58:42.578Z,22.07
2023-03-02T23:01:26.767Z,22.43
2023-03-02T23:04:02.304Z,21.40
2023-03-02T23:06:33.612Z,20.87
2023-03-02T23:09:06.293Z,22.00
2023-03-02T23:11:39.502Z,20.63
2023-03-02T23:14:23.133Z,20.08
2023-03-02T23:16:55.846Z,20.53
2023-03-02T23:19:29.488Z,21.02
2023-03-02T23:21:59.509Z,21.07
2023-03-02T23:24:29.320Z,21.33
2023-03-02T23:26:59.164Z,19.30
2023-03-02T23:29:29.147Z,18.67
2023-03-02T23:31:59.425Z,19.57
2023-03-02T23:34:32.655Z,18.17
2023-03-02T23:37:02.878Z,18.42
2023-03-02T23:39:34.027Z,19.63
2023-03-02T23:42:04.997Z,19.90
2023-03-02T23:44:34.870Z,18.53
2023-03-02T23:47:05.191Z,20.15
2023-03-02T23:49:34.954Z,20.83
2023-03-02T23:52:06.515Z,20.17
2023-03-02T23:54:36.518Z,19.73
2023-03-02T23:57:06.679Z,20.37
2023-03-02T23:59:36.535Z,20.63
